Terminal Aerodrome Forecast
Issued by NWS

Home | Current Version | Previous Version | Text Only | Print | Product List | Glossary On
Versions: 1 2 3 4 5 6 7 8 9 10 11 12 13 14 15 16 17 18 19 20
000
FTUS43 KFGF 200159 AAA
TAFDVL
TAF AMD
KDVL 200159Z 2002/2024 29012G21KT P6SM VCTS OVC080CB
     FM200900 26008KT P6SM BKN080
     FM201200 25008KT P6SM SCT150
     FM201700 23012KT P6SM FEW250=

USA.gov is the U.S. government's official web portal to all federal, state and local government web resources and services.